createdAt,value
2023-01-13T00:00:19.374Z,3.80
2023-01-13T00:02:47.315Z,2.50
2023-01-13T00:05:14.927Z,2.17
2023-01-13T00:07:43.411Z,4.13
2023-01-13T00:10:11.866Z,1.38
2023-01-13T00:12:41.245Z,5.15
2023-01-13T00:15:09.272Z,2.28
2023-01-13T00:17:37.017Z,1.35
2023-01-13T00:20:04.755Z,0.85
2023-01-13T00:22:36.398Z,1.42
2023-01-13T00:25:04.828Z,1.30
2023-01-13T00:27:32.524Z,0.50
2023-01-13T00:30:00.292Z,2.78
2023-01-13T00:32:28.674Z,2.38
2023-01-13T00:34:56.231Z,3.13
2023-01-13T00:37:24.214Z,3.25
2023-01-13T00:39:52.440Z,2.20
2023-01-13T00:42:39.120Z,1.65
2023-01-13T00:45:06.943Z,2.35
2023-01-13T00:47:34.504Z,0.95
2023-01-13T00:50:02.253Z,2.92
2023-01-13T00:52:30.589Z,2.55
2023-01-13T00:54:58.180Z,2.35
2023-01-13T00:57:25.806Z,2.03
2023-01-13T00:59:54.853Z,2.88
2023-01-13T01:02:22.443Z,2.65
2023-01-13T01:04:50.184Z,2.08
2023-01-13T01:07:18.019Z,2.33
2023-01-13T01:09:45.644Z,2.90
2023-01-13T01:12:14.267Z,1.70
2023-01-13T01:14:42.088Z,0.98
2023-01-13T01:17:09.731Z,3.33
2023-01-13T01:19:38.850Z,1.40
2023-01-13T01:22:06.851Z,2.53
2023-01-13T01:24:35.756Z,2.28
2023-01-13T01:27:03.359Z,2.58
2023-01-13T01:29:31.002Z,2.38
2023-01-13T01:31:59.309Z,0.57
2023-01-13T01:34:27.118Z,1.23
2023-01-13T01:36:54.691Z,2.28
2023-01-13T01:39:22.303Z,3.55
2023-01-13T01:42:08.529Z,1.48
2023-01-13T01:44:42.815Z,2.30
2023-01-13T01:47:12.480Z,1.73
2023-01-13T01:49:40.271Z,2.47
2023-01-13T01:52:16.665Z,2.03
2023-01-13T01:55:07.051Z,0.90
2023-01-13T01:57:37.859Z,0.95
2023-01-13T02:00:06.110Z,1.45
2023-01-13T02:02:40.152Z,0.95
2023-01-13T02:05:08.398Z,1.58
2023-01-13T02:07:37.851Z,0.82
2023-01-13T02:10:07.148Z,1.33
2023-01-13T02:12:34.959Z,1.75
2023-01-13T02:15:11.111Z,1.73
2023-01-13T02:17:51.701Z,1.17
2023-01-13T02:20:19.557Z,1.20
2023-01-13T02:23:04.082Z,1.40
2023-01-13T02:25:31.677Z,0.85
2023-01-13T02:28:05.232Z,1.05
2023-01-13T02:31:06.825Z,0.43
2023-01-13T02:33:42.031Z,0.63
2023-01-13T02:36:28.724Z,1.75
2023-01-13T02:39:03.811Z,0.77
2023-01-13T02:41:59.324Z,1.80
2023-01-13T02:44:28.728Z,1.42
2023-01-13T02:47:09.158Z,1.63
2023-01-13T02:49:39.476Z,1.27
2023-01-13T02:52:10.502Z,0.33
2023-01-13T02:57:07.449Z,0.85
2023-01-13T02:59:35.024Z,1.20
2023-01-13T03:02:03.519Z,1.15
2023-01-13T03:04:54.877Z,0.75
2023-01-13T03:09:56.086Z,0.80
2023-01-13T03:12:45.190Z,0.45
2023-01-13T03:15:40.210Z,0.30
2023-01-13T03:18:13.188Z,0.70
2023-01-13T03:20:47.719Z,0.60
2023-01-13T03:23:22.579Z,0.85
2023-01-13T03:26:01.064Z,0.52
2023-01-13T03:28:37.875Z,0.30
2023-01-13T03:31:07.406Z,0.55
2023-01-13T03:33:37.021Z,3.45
2023-01-13T03:36:06.533Z,0.43
2023-01-13T03:38:36.616Z,0.80
2023-01-13T03:41:07.357Z,0.22
2023-01-13T03:44:06.850Z,1.35
2023-01-13T03:46:45.456Z,0.47
2023-01-13T03:49:15.375Z,1.40
2023-01-13T03:51:44.294Z,1.20
2023-01-13T03:54:13.279Z,0.32
2023-01-13T03:56:43.918Z,0.63
2023-01-13T03:59:14.502Z,0.30
2023-01-13T04:01:42.474Z,0.30
2023-01-13T04:04:15.236Z,1.05
2023-01-13T04:06:57.526Z,0.65
2023-01-13T04:09:25.095Z,0.43
2023-01-13T04:11:55.573Z,1.45
2023-01-13T04:14:24.189Z,0.35
2023-01-13T04:16:52.754Z,0.30
2023-01-13T04:19:20.795Z,0.22
2023-01-13T04:21:48.497Z,0.30
2023-01-13T04:24:15.982Z,0.30
2023-01-13T04:26:43.600Z,0.57
2023-01-13T04:29:11.303Z,0.35
2023-01-13T04:31:39.075Z,0.30
2023-01-13T04:34:06.597Z,0.50
2023-01-13T04:36:35.609Z,0.35
2023-01-13T04:39:03.940Z,0.30
2023-01-13T04:41:54.245Z,0.20
2023-01-13T04:44:21.861Z,0.20
2023-01-13T04:46:49.438Z,0.28
2023-01-13T04:49:17.163Z,0.40
2023-01-13T04:51:44.734Z,0.20
2023-01-13T04:54:13.583Z,0.20
2023-01-13T04:56:41.359Z,0.25
2023-01-13T04:59:10.535Z,1.38
2023-01-13T05:01:38.559Z,0.20
2023-01-13T05:04:06.524Z,1.10
2023-01-13T05:06:34.392Z,0.35
2023-01-13T05:09:02.053Z,0.25
2023-01-13T05:11:48.096Z,0.85
2023-01-13T05:14:34.569Z,0.63
2023-01-13T05:17:03.272Z,1.35
2023-01-13T05:19:30.856Z,1.17
2023-01-13T05:22:17.402Z,0.22
2023-01-13T05:25:03.980Z,0.30
2023-01-13T05:27:32.040Z,0.28
2023-01-13T05:29:59.639Z,0.30
2023-01-13T05:32:28.260Z,1.48
2023-01-13T05:34:56.564Z,0.30
2023-01-13T05:37:25.826Z,0.30
2023-01-13T05:40:12.055Z,0.20
2023-01-13T05:42:58.184Z,0.22
2023-01-13T05:45:25.909Z,0.60
2023-01-13T05:47:53.564Z,0.30
2023-01-13T05:50:21.213Z,0.30
2023-01-13T05:52:48.947Z,0.50
2023-01-13T05:55:16.583Z,0.35
2023-01-13T05:57:44.672Z,0.30
2023-01-13T06:00:12.548Z,0.38
2023-01-13T06:02:40.320Z,0.30
2023-01-13T06:05:08.761Z,0.40
2023-01-13T06:07:36.499Z,0.65
2023-01-13T06:10:04.666Z,1.38
2023-01-13T06:12:32.315Z,0.50
2023-01-13T06:14:59.977Z,0.80
2023-01-13T06:17:27.641Z,0.20
2023-01-13T06:19:55.287Z,0.20
2023-01-13T06:22:24.538Z,0.85
2023-01-13T06:24:53.784Z,0.43
2023-01-13T06:27:22.331Z,0.30
2023-01-13T06:29:50.260Z,0.20
2023-01-13T06:32:29.327Z,0.60
2023-01-13T06:35:00.910Z,43.42
2023-01-13T06:37:29.622Z,8.77
2023-01-13T06:39:59.042Z,3.25
2023-01-13T06:42:47.153Z,0.95
2023-01-13T06:45:15.144Z,0.45
2023-01-13T06:47:43.877Z,0.60
2023-01-13T06:50:11.948Z,0.55
2023-01-13T06:52:39.877Z,0.50
2023-01-13T06:55:07.932Z,1.27
2023-01-13T06:57:35.509Z,1.23
2023-01-13T07:00:03.327Z,0.52
2023-01-13T07:02:31.075Z,0.50
2023-01-13T07:05:00.090Z,1.35
2023-01-13T07:07:28.219Z,0.30
2023-01-13T07:09:55.981Z,0.30
2023-01-13T07:12:24.163Z,0.30
2023-01-13T07:15:10.498Z,0.22
2023-01-13T07:17:38.143Z,0.30
2023-01-13T07:20:08.879Z,0.65
2023-01-13T07:22:36.837Z,0.90
2023-01-13T07:25:05.275Z,1.55
2023-01-13T07:27:32.936Z,0.85
2023-01-13T07:30:00.836Z,0.30
2023-01-13T07:32:28.667Z,0.28
2023-01-13T07:34:56.693Z,0.40
2023-01-13T07:37:24.732Z,0.30
2023-01-13T07:39:54.210Z,1.98
2023-01-13T07:42:40.547Z,0.80
2023-01-13T07:45:10.846Z,0.25
2023-01-13T07:47:40.186Z,1.25
2023-01-13T07:50:08.595Z,0.40
2023-01-13T07:52:36.321Z,0.63
2023-01-13T07:55:04.244Z,0.32
2023-01-13T07:57:31.915Z,0.35
2023-01-13T07:59:59.755Z,2.08
2023-01-13T08:02:27.601Z,0.98
2023-01-13T08:04:55.374Z,0.68
2023-01-13T08:07:23.185Z,0.68
2023-01-13T08:09:51.258Z,0.20
2023-01-13T08:12:38.071Z,0.75
2023-01-13T08:15:07.181Z,0.43
2023-01-13T08:17:35.682Z,1.85
2023-01-13T08:20:04.626Z,0.57
2023-01-13T08:22:33.308Z,0.30
2023-01-13T08:25:01.900Z,0.63
2023-01-13T08:27:30.067Z,0.55
2023-01-13T08:29:57.835Z,0.60
2023-01-13T08:32:25.700Z,0.40
2023-01-13T08:34:53.404Z,3.25
2023-01-13T08:37:21.185Z,1.05
2023-01-13T08:39:49.202Z,1.10
2023-01-13T08:42:16.919Z,0.32
2023-01-13T08:44:44.526Z,0.22
2023-01-13T08:47:12.186Z,0.75
2023-01-13T08:49:39.890Z,0.95
2023-01-13T08:52:08.147Z,0.98
2023-01-13T08:54:35.784Z,0.22
2023-01-13T08:57:04.012Z,1.13
2023-01-13T08:59:31.893Z,0.40
2023-01-13T09:01:59.996Z,0.73
2023-01-13T09:04:29.393Z,0.30
2023-01-13T09:06:57.737Z,0.30
2023-01-13T09:09:27.627Z,0.50
2023-01-13T09:12:13.981Z,0.28
2023-01-13T09:14:41.707Z,0.40
2023-01-13T09:17:09.459Z,0.28
2023-01-13T09:19:37.245Z,2.28
2023-01-13T09:22:05.085Z,0.30
2023-01-13T09:24:33.016Z,1.38
2023-01-13T09:27:00.678Z,1.95
2023-01-13T09:29:28.274Z,0.95
2023-01-13T09:31:58.006Z,0.65
2023-01-13T09:34:44.416Z,0.73
2023-01-13T09:37:12.025Z,0.20
2023-01-13T09:39:39.738Z,0.35
2023-01-13T09:42:32.186Z,1.65
2023-01-13T09:45:04.827Z,1.15
2023-01-13T09:47:41.742Z,2.38
2023-01-13T09:50:18.826Z,0.73
2023-01-13T09:52:46.435Z,0.50
2023-01-13T09:55:30.105Z,0.63
2023-01-13T09:57:57.758Z,1.25
2023-01-13T10:00:34.328Z,0.32
2023-01-13T10:03:16.065Z,0.47
2023-01-13T10:05:46.251Z,0.30
2023-01-13T10:08:37.031Z,2.58
2023-01-13T10:11:24.908Z,1.35
2023-01-13T10:13:56.458Z,1.00
2023-01-13T10:16:32.000Z,0.43
2023-01-13T10:19:07.538Z,1.55
2023-01-13T10:21:52.081Z,0.68
2023-01-13T10:24:27.425Z,0.82
2023-01-13T10:27:05.550Z,1.15
2023-01-13T10:29:34.618Z,0.45
2023-01-13T10:32:02.272Z,1.00
2023-01-13T10:34:30.151Z,2.20
2023-01-13T10:37:08.998Z,0.30
2023-01-13T10:39:41.853Z,0.30
2023-01-13T10:42:18.065Z,1.35
2023-01-13T10:44:49.703Z,0.60
2023-01-13T10:47:23.590Z,0.38
2023-01-13T10:50:03.655Z,1.77
2023-01-13T10:52:32.490Z,0.30
2023-01-13T10:55:01.204Z,0.80
2023-01-13T10:57:29.070Z,7.10
2023-01-13T10:59:56.778Z,0.68
2023-01-13T11:02:30.085Z,0.88
2023-01-13T11:05:02.843Z,1.10
2023-01-13T11:07:35.212Z,1.05
2023-01-13T11:10:10.902Z,0.82
2023-01-13T11:12:56.933Z,1.20
2023-01-13T11:15:28.739Z,1.48
2023-01-13T11:18:02.055Z,1.67
2023-01-13T11:20:37.890Z,2.03
2023-01-13T11:23:12.522Z,2.63
2023-01-13T11:25:44.991Z,3.17
2023-01-13T11:28:34.639Z,1.33
2023-01-13T11:31:05.561Z,1.08
2023-01-13T11:33:45.864Z,1.30
2023-01-13T11:36:29.066Z,3.47
2023-01-13T11:38:58.712Z,2.22
2023-01-13T11:41:32.802Z,0.85
2023-01-13T11:44:21.810Z,0.82
2023-01-13T11:46:50.814Z,2.92
2023-01-13T11:49:27.425Z,2.80
2023-01-13T11:51:58.657Z,0.85
2023-01-13T11:54:41.635Z,1.58
2023-01-13T11:57:18.247Z,1.85
2023-01-13T12:00:04.858Z,1.60
2023-01-13T12:02:51.272Z,2.90
2023-01-13T12:05:19.020Z,1.02
2023-01-13T12:08:26.212Z,1.92
2023-01-13T12:10:56.869Z,0.85
2023-01-13T12:13:41.293Z,2.58
2023-01-13T12:16:12.328Z,0.80
2023-01-13T12:21:25.585Z,1.75
2023-01-13T12:23:59.708Z,1.08
2023-01-13T12:26:30.385Z,2.38
2023-01-13T12:29:03.473Z,0.85
2023-01-13T12:31:32.000Z,2.17
2023-01-13T12:34:18.556Z,4.55
2023-01-13T12:36:59.034Z,3.22
2023-01-13T12:39:26.694Z,3.03
2023-01-13T12:42:24.519Z,2.80
2023-01-13T12:45:10.621Z,3.60
2023-01-13T12:47:48.760Z,2.35
2023-01-13T12:50:25.486Z,1.58
2023-01-13T12:52:54.325Z,0.95
2023-01-13T12:55:22.128Z,0.98
2023-01-13T12:58:24.673Z,2.65
2023-01-13T13:00:58.623Z,2.28
2023-01-13T13:03:31.115Z,2.40
2023-01-13T13:06:11.072Z,2.78
2023-01-13T13:09:03.328Z,0.63
2023-01-13T13:11:54.748Z,2.63
2023-01-13T13:14:49.179Z,2.17
2023-01-13T13:17:29.606Z,1.90
2023-01-13T13:19:57.771Z,2.63
2023-01-13T13:22:30.585Z,1.40
2023-01-13T13:24:58.490Z,2.88
2023-01-13T13:27:32.362Z,0.90
2023-01-13T13:30:02.211Z,1.80
2023-01-13T13:32:42.125Z,2.30
2023-01-13T13:35:28.745Z,4.50
2023-01-13T13:38:21.217Z,1.85
2023-01-13T13:41:07.478Z,4.20
2023-01-13T13:43:59.411Z,1.75
2023-01-13T13:46:46.703Z,2.95
2023-01-13T13:49:20.310Z,0.95
2023-01-13T13:52:01.105Z,1.27
2023-01-13T13:54:28.870Z,3.05
2023-01-13T13:56:57.834Z,2.22
2023-01-13T13:59:26.981Z,1.15
2023-01-13T14:02:01.692Z,2.22
2023-01-13T14:04:37.346Z,1.08
2023-01-13T14:07:18.572Z,2.95
2023-01-13T14:12:23.752Z,3.00
2023-01-13T14:14:52.233Z,1.65
2023-01-13T14:17:27.445Z,2.25
2023-01-13T14:19:59.072Z,2.13
2023-01-13T14:22:27.196Z,1.70
2023-01-13T14:27:21.592Z,3.15
2023-01-13T14:29:49.957Z,1.58
2023-01-13T14:32:22.648Z,1.75
2023-01-13T14:34:59.424Z,3.13
2023-01-13T14:40:05.051Z,3.83
2023-01-13T14:42:35.672Z,2.78
2023-01-13T14:45:04.007Z,2.22
2023-01-13T14:47:34.192Z,4.13
2023-01-13T14:50:04.628Z,2.85
2023-01-13T14:52:36.866Z,4.00
2023-01-13T14:55:08.801Z,2.83
2023-01-13T14:57:38.105Z,2.75
2023-01-13T15:00:15.177Z,2.25
2023-01-13T15:02:48.021Z,4.25
2023-01-13T15:05:24.673Z,2.80
2023-01-13T15:07:55.513Z,3.50
2023-01-13T15:10:24.724Z,2.88
2023-01-13T15:12:54.156Z,2.63
2023-01-13T15:15:26.870Z,2.20
2023-01-13T15:17:54.863Z,1.63
2023-01-13T15:20:23.981Z,2.20
2023-01-13T15:23:02.217Z,3.05
2023-01-13T15:25:33.570Z,3.60
2023-01-13T15:28:02.610Z,2.60
2023-01-13T15:30:30.282Z,3.63
2023-01-13T15:32:59.150Z,2.90
2023-01-13T15:35:28.235Z,2.00
2023-01-13T15:37:56.774Z,4.47
2023-01-13T15:40:31.193Z,3.53
2023-01-13T15:45:54.250Z,3.25
2023-01-13T15:48:22.580Z,3.58
2023-01-13T15:50:50.419Z,4.35
2023-01-13T15:53:18.381Z,4.85
2023-01-13T15:55:48.225Z,4.70
2023-01-13T15:58:17.690Z,3.92
2023-01-13T16:00:45.994Z,4.13
2023-01-13T16:03:15.307Z,6.85
2023-01-13T16:05:47.397Z,4.63
2023-01-13T16:08:23.604Z,5.85
2023-01-13T16:16:22.855Z,5.38
2023-01-13T16:18:50.737Z,3.67
2023-01-13T16:27:33.409Z,1.88
2023-01-13T16:30:03.254Z,2.47
2023-01-13T16:32:30.974Z,3.47
2023-01-13T16:35:10.234Z,2.20
2023-01-13T16:38:04.123Z,9.35
2023-01-13T16:43:21.371Z,15.88
2023-01-13T16:45:54.519Z,8.40
2023-01-13T16:56:31.369Z,3.58
2023-01-13T16:59:00.372Z,1.55
2023-01-13T17:01:30.066Z,1.50
2023-01-13T17:03:58.796Z,3.05
2023-01-13T17:06:29.821Z,4.43
2023-01-13T17:09:00.985Z,3.20
2023-01-13T17:13:56.403Z,2.83
2023-01-13T17:16:26.434Z,2.92
2023-01-13T17:24:21.127Z,3.10
2023-01-13T17:29:43.125Z,4.28
2023-01-13T17:32:15.576Z,6.55
2023-01-13T17:34:44.650Z,3.65
2023-01-13T17:37:16.067Z,4.25
2023-01-13T17:39:44.676Z,3.90
2023-01-13T17:42:13.502Z,5.72
2023-01-13T17:44:42.774Z,8.10
2023-01-13T18:11:49.289Z,5.93
2023-01-13T18:19:59.099Z,4.30
2023-01-13T18:22:45.237Z,6.40
2023-01-13T18:25:32.023Z,6.82
2023-01-13T18:28:02.968Z,4.90
2023-01-13T18:30:30.771Z,4.90
2023-01-13T18:32:58.855Z,5.10
2023-01-13T18:35:26.881Z,10.18
2023-01-13T18:37:55.315Z,6.38
2023-01-13T18:42:56.241Z,5.18
2023-01-13T18:48:07.383Z,5.75
2023-01-13T18:50:42.625Z,6.43
2023-01-13T18:53:11.143Z,6.25
2023-01-13T18:55:41.314Z,9.15
2023-01-13T19:01:01.060Z,4.75
2023-01-13T19:03:36.607Z,6.60
2023-01-13T19:06:07.678Z,4.18
2023-01-13T19:11:06.226Z,4.93
2023-01-13T19:13:36.016Z,4.45
2023-01-13T19:16:07.456Z,7.82
2023-01-13T19:18:36.110Z,6.03
2023-01-13T19:21:04.785Z,4.50
2023-01-13T19:23:33.262Z,5.68
2023-01-13T19:26:05.879Z,5.13
2023-01-13T19:28:33.793Z,5.63
2023-01-13T19:31:02.669Z,5.60
2023-01-13T19:33:32.151Z,6.68
2023-01-13T19:35:59.968Z,3.78
2023-01-13T19:38:28.139Z,6.10
2023-01-13T19:41:00.230Z,8.95
2023-01-13T19:43:46.737Z,5.85
2023-01-13T19:46:14.486Z,12.32
2023-01-13T19:48:43.573Z,10.45
2023-01-13T19:51:14.408Z,11.52
2023-01-13T19:53:42.627Z,11.45
2023-01-13T19:56:14.389Z,7.72
2023-01-13T19:58:42.268Z,4.53
2023-01-13T20:01:11.689Z,11.52
2023-01-13T20:03:39.375Z,7.03
2023-01-13T20:06:10.277Z,6.93
2023-01-13T20:08:37.894Z,7.35
2023-01-13T20:11:27.700Z,7.38
2023-01-13T20:13:55.403Z,11.50
2023-01-13T20:16:22.962Z,9.27
2023-01-13T20:18:51.590Z,4.80
2023-01-13T20:21:19.224Z,8.15
2023-01-13T20:23:49.627Z,6.65
2023-01-13T20:26:17.324Z,9.32
2023-01-13T20:28:45.187Z,7.10
2023-01-13T20:31:13.805Z,9.38
2023-01-13T20:33:41.698Z,7.55
2023-01-13T20:36:09.758Z,5.43
2023-01-13T20:38:39.701Z,5.00
2023-01-13T20:41:26.555Z,6.40
2023-01-13T20:43:54.655Z,7.72
2023-01-13T20:46:23.096Z,7.10
2023-01-13T20:48:50.750Z,6.60
2023-01-13T20:51:18.498Z,7.53
2023-01-13T20:53:46.141Z,6.05
2023-01-13T20:56:14.598Z,7.45
2023-01-13T20:58:43.921Z,7.82
2023-01-13T21:01:11.894Z,8.02
2023-01-13T21:03:39.569Z,3.90
2023-01-13T21:06:07.278Z,7.82
2023-01-13T21:08:35.222Z,3.65
2023-01-13T21:11:10.365Z,5.03
2023-01-13T21:13:56.497Z,8.38
2023-01-13T21:16:24.205Z,6.50
2023-01-13T21:19:07.046Z,11.98
2023-01-13T21:21:34.640Z,2.80
2023-01-13T21:24:02.162Z,4.90
2023-01-13T21:26:29.877Z,7.45
2023-01-13T21:28:58.479Z,4.10
2023-01-13T21:31:27.164Z,5.60
2023-01-13T21:33:55.712Z,4.50
2023-01-13T21:36:23.470Z,4.57
2023-01-13T21:38:52.242Z,3.70
2023-01-13T21:41:38.509Z,5.78
2023-01-13T21:44:24.843Z,3.65
2023-01-13T21:47:11.882Z,7.53
2023-01-13T21:49:44.102Z,6.97
2023-01-13T21:55:07.863Z,4.95
2023-01-13T21:57:35.585Z,4.70
2023-01-13T22:00:03.211Z,10.57
2023-01-13T22:02:32.975Z,6.22
2023-01-13T22:05:00.973Z,3.92
2023-01-13T22:07:28.982Z,5.65
2023-01-13T22:09:58.086Z,8.43
2023-01-13T22:12:25.800Z,12.57
2023-01-13T22:14:54.181Z,9.90
2023-01-13T22:17:23.061Z,7.63
2023-01-13T22:19:52.720Z,6.72
2023-01-13T22:22:21.296Z,7.72
2023-01-13T22:24:49.844Z,9.20
2023-01-13T22:29:49.711Z,6.97
2023-01-13T22:32:17.483Z,6.28
2023-01-13T22:34:46.328Z,14.45
2023-01-13T22:37:13.995Z,9.60
2023-01-13T22:39:41.573Z,10.15
2023-01-13T22:42:10.204Z,8.43
2023-01-13T22:44:37.977Z,7.90
2023-01-13T22:47:06.829Z,8.60
2023-01-13T22:49:34.551Z,7.60
2023-01-13T22:52:02.260Z,10.00
2023-01-13T22:54:29.839Z,7.65
2023-01-13T22:56:57.326Z,9.52
2023-01-13T22:59:24.839Z,7.60
2023-01-13T23:01:52.466Z,9.88
2023-01-13T23:04:20.066Z,8.18
2023-01-13T23:06:47.721Z,14.20
2023-01-13T23:09:15.485Z,8.95
2023-01-13T23:11:43.190Z,11.60
2023-01-13T23:14:12.249Z,10.77
2023-01-13T23:16:40.656Z,9.73
2023-01-13T23:19:08.732Z,9.43
2023-01-13T23:21:37.494Z,9.48
2023-01-13T23:24:05.706Z,9.82
2023-01-13T23:26:34.053Z,9.60
2023-01-13T23:29:02.828Z,8.50
2023-01-13T23:31:30.424Z,8.65
2023-01-13T23:33:58.038Z,5.78
2023-01-13T23:36:26.936Z,6.75
2023-01-13T23:38:54.608Z,7.05
2023-01-13T23:41:23.754Z,15.65
2023-01-13T23:43:57.542Z,6.63
2023-01-13T23:46:25.859Z,8.73
2023-01-13T23:48:55.010Z,8.30
2023-01-13T23:51:23.340Z,7.75
2023-01-13T23:53:51.462Z,9.05
2023-01-13T23:56:21.268Z,9.77
2023-01-13T23:58:49.045Z,9.63
